sensor_id;sensor_type;location;lat;lon;timestamp;P1;durP1;ratioP1;P2;durP2;ratioP2
8803;SDS011;4438;50.890;4.726;2023-06-24T00:00:58;7.20;;;6.60;;
8803;SDS011;4438;50.890;4.726;2023-06-24T00:03:24;7.53;;;6.77;;
8803;SDS011;4438;50.890;4.726;2023-06-24T00:05:50;7.30;;;6.70;;
8803;SDS011;4438;50.890;4.726;2023-06-24T00:08:18;7.07;;;6.47;;
8803;SDS011;4438;50.890;4.726;2023-06-24T00:10:47;7.30;;;6.70;;
8803;SDS011;4438;50.890;4.726;2023-06-24T00:13:15;7.00;;;6.40;;
8803;SDS011;4438;50.890;4.726;2023-06-24T00:15:41;7.50;;;6.90;;
8803;SDS011;4438;50.890;4.726;2023-06-24T00:18:11;8.10;;;7.30;;
8803;SDS011;4438;50.890;4.726;2023-06-24T00:20:37;6.97;;;6.37;;
8803;SDS011;4438;50.890;4.726;2023-06-24T00:23:03;7.20;;;6.60;;
8803;SDS011;4438;50.890;4.726;2023-06-24T00:25:30;7.70;;;7.00;;
8803;SDS011;4438;50.890;4.726;2023-06-24T00:27:56;7.60;;;6.80;;
8803;SDS011;4438;50.890;4.726;2023-06-24T00:30:22;7.23;;;6.63;;
8803;SDS011;4438;50.890;4.726;2023-06-24T00:32:48;7.20;;;6.50;;
8803;SDS011;4438;50.890;4.726;2023-06-24T00:35:14;7.30;;;6.60;;
8803;SDS011;4438;50.890;4.726;2023-06-24T00:37:41;8.13;;;7.40;;
8803;SDS011;4438;50.890;4.726;2023-06-24T00:40:10;7.57;;;6.87;;
8803;SDS011;4438;50.890;4.726;2023-06-24T00:42:40;7.63;;;6.93;;
8803;SDS011;4438;50.890;4.726;2023-06-24T00:45:08;8.97;;;8.03;;
8803;SDS011;4438;50.890;4.726;2023-06-24T00:47:35;7.93;;;7.20;;
8803;SDS011;4438;50.890;4.726;2023-06-24T00:50:01;9.07;;;7.83;;
8803;SDS011;4438;50.890;4.726;2023-06-24T00:52:27;8.37;;;7.60;;
8803;SDS011;4438;50.890;4.726;2023-06-24T00:54:53;8.70;;;7.90;;
8803;SDS011;4438;50.890;4.726;2023-06-24T00:57:21;8.30;;;7.50;;
8803;SDS011;4438;50.890;4.726;2023-06-24T00:59:48;8.30;;;7.50;;
8803;SDS011;4438;50.890;4.726;2023-06-24T01:02:18;9.80;;;8.90;;
8803;SDS011;4438;50.890;4.726;2023-06-24T01:04:45;9.10;;;8.20;;
8803;SDS011;4438;50.890;4.726;2023-06-24T01:07:11;8.13;;;7.43;;
8803;SDS011;4438;50.890;4.726;2023-06-24T01:09:39;8.80;;;7.97;;
8803;SDS011;4438;50.890;4.726;2023-06-24T01:12:05;9.47;;;7.80;;
8803;SDS011;4438;50.890;4.726;2023-06-24T01:14:31;8.03;;;7.40;;
8803;SDS011;4438;50.890;4.726;2023-06-24T01:35:20;7.90;;;7.20;;
8803;SDS011;4438;50.890;4.726;2023-06-24T01:37:48;9.63;;;7.87;;
8803;SDS011;4438;50.890;4.726;2023-06-24T01:40:28;8.20;;;7.50;;
8803;SDS011;4438;50.890;4.726;2023-06-24T01:42:57;8.60;;;7.83;;
8803;SDS011;4438;50.890;4.726;2023-06-24T01:45:28;8.10;;;7.40;;
8803;SDS011;4438;50.890;4.726;2023-06-24T01:47:59;8.00;;;7.20;;
8803;SDS011;4438;50.890;4.726;2023-06-24T01:50:26;8.67;;;7.87;;
8803;SDS011;4438;50.890;4.726;2023-06-24T01:52:52;7.97;;;7.27;;
8803;SDS011;4438;50.890;4.726;2023-06-24T01:55:19;7.43;;;6.83;;
8803;SDS011;4438;50.890;4.726;2023-06-24T01:57:46;8.10;;;7.43;;
8803;SDS011;4438;50.890;4.726;2023-06-24T02:00:13;8.30;;;7.57;;
8803;SDS011;4438;50.890;4.726;2023-06-24T02:02:41;7.83;;;7.13;;
8803;SDS011;4438;50.890;4.726;2023-06-24T02:05:07;7.40;;;6.80;;
8803;SDS011;4438;50.890;4.726;2023-06-24T02:07:35;7.93;;;7.27;;
8803;SDS011;4438;50.890;4.726;2023-06-24T02:10:01;8.13;;;7.40;;
8803;SDS011;4438;50.890;4.726;2023-06-24T02:12:29;8.17;;;7.20;;
8803;SDS011;4438;50.890;4.726;2023-06-24T02:14:55;7.47;;;6.87;;
8803;SDS011;4438;50.890;4.726;2023-06-24T02:17:23;7.83;;;7.13;;
8803;SDS011;4438;50.890;4.726;2023-06-24T02:19:55;8.13;;;7.33;;
8803;SDS011;4438;50.890;4.726;2023-06-24T02:22:21;7.70;;;7.00;;
8803;SDS011;4438;50.890;4.726;2023-06-24T02:24:48;7.87;;;7.17;;
8803;SDS011;4438;50.890;4.726;2023-06-24T02:27:15;8.03;;;7.23;;
8803;SDS011;4438;50.890;4.726;2023-06-24T02:29:41;7.47;;;6.77;;
8803;SDS011;4438;50.890;4.726;2023-06-24T02:32:08;7.73;;;7.03;;
8803;SDS011;4438;50.890;4.726;2023-06-24T02:34:35;8.13;;;7.43;;
8803;SDS011;4438;50.890;4.726;2023-06-24T02:37:01;7.77;;;6.97;;
8803;SDS011;4438;50.890;4.726;2023-06-24T02:39:27;7.97;;;7.27;;
8803;SDS011;4438;50.890;4.726;2023-06-24T02:41:53;7.43;;;6.73;;
8803;SDS011;4438;50.890;4.726;2023-06-24T02:44:19;7.57;;;6.93;;
8803;SDS011;4438;50.890;4.726;2023-06-24T02:46:46;6.70;;;5.93;;
8803;SDS011;4438;50.890;4.726;2023-06-24T02:49:13;6.60;;;6.00;;
8803;SDS011;4438;50.890;4.726;2023-06-24T02:51:41;6.97;;;6.33;;
8803;SDS011;4438;50.890;4.726;2023-06-24T02:54:07;6.87;;;6.17;;
8803;SDS011;4438;50.890;4.726;2023-06-24T02:56:34;7.10;;;6.40;;
8803;SDS011;4438;50.890;4.726;2023-06-24T02:59:01;6.47;;;5.87;;
8803;SDS011;4438;50.890;4.726;2023-06-24T03:01:27;6.30;;;5.70;;
8803;SDS011;4438;50.890;4.726;2023-06-24T03:03:54;6.23;;;5.73;;
8803;SDS011;4438;50.890;4.726;2023-06-24T03:06:21;7.17;;;5.23;;
8803;SDS011;4438;50.890;4.726;2023-06-24T03:08:48;5.90;;;5.30;;
8803;SDS011;4438;50.890;4.726;2023-06-24T03:11:14;5.97;;;5.47;;
8803;SDS011;4438;50.890;4.726;2023-06-24T03:13:41;6.77;;;5.97;;
8803;SDS011;4438;50.890;4.726;2023-06-24T03:16:07;6.07;;;5.57;;
8803;SDS011;4438;50.890;4.726;2023-06-24T03:18:41;5.80;;;5.30;;
8803;SDS011;4438;50.890;4.726;2023-06-24T03:21:07;6.47;;;5.80;;
8803;SDS011;4438;50.890;4.726;2023-06-24T03:23:34;5.93;;;5.43;;
8803;SDS011;4438;50.890;4.726;2023-06-24T03:26:00;6.00;;;5.50;;
8803;SDS011;4438;50.890;4.726;2023-06-24T03:28:28;5.33;;;4.83;;
8803;SDS011;4438;50.890;4.726;2023-06-24T03:30:54;5.40;;;4.90;;
8803;SDS011;4438;50.890;4.726;2023-06-24T03:33:20;5.63;;;5.20;;
8803;SDS011;4438;50.890;4.726;2023-06-24T03:35:46;5.67;;;5.17;;
8803;SDS011;4438;50.890;4.726;2023-06-24T03:38:12;5.83;;;5.27;;
8803;SDS011;4438;50.890;4.726;2023-06-24T03:40:38;7.27;;;5.33;;
8803;SDS011;4438;50.890;4.726;2023-06-24T03:43:04;5.83;;;5.30;;
8803;SDS011;4438;50.890;4.726;2023-06-24T03:45:30;6.77;;;5.30;;
8803;SDS011;4438;50.890;4.726;2023-06-24T03:47:56;6.03;;;5.43;;
8803;SDS011;4438;50.890;4.726;2023-06-24T03:50:22;5.50;;;5.00;;
8803;SDS011;4438;50.890;4.726;2023-06-24T03:52:48;6.17;;;5.57;;
8803;SDS011;4438;50.890;4.726;2023-06-24T03:55:14;6.77;;;6.10;;
8803;SDS011;4438;50.890;4.726;2023-06-24T03:57:40;6.73;;;5.70;;
8803;SDS011;4438;50.890;4.726;2023-06-24T04:00:07;5.93;;;5.43;;
8803;SDS011;4438;50.890;4.726;2023-06-24T04:02:43;5.80;;;5.30;;
8803;SDS011;4438;50.890;4.726;2023-06-24T04:05:10;5.70;;;5.20;;
8803;SDS011;4438;50.890;4.726;2023-06-24T04:07:36;5.60;;;5.10;;
8803;SDS011;4438;50.890;4.726;2023-06-24T04:10:03;5.73;;;5.23;;
8803;SDS011;4438;50.890;4.726;2023-06-24T04:12:34;5.73;;;5.20;;
8803;SDS011;4438;50.890;4.726;2023-06-24T04:15:01;5.13;;;4.73;;
8803;SDS011;4438;50.890;4.726;2023-06-24T04:17:28;6.13;;;5.23;;
8803;SDS011;4438;50.890;4.726;2023-06-24T04:19:54;6.00;;;5.50;;
8803;SDS011;4438;50.890;4.726;2023-06-24T04:22:20;5.97;;;5.40;;
8803;SDS011;4438;50.890;4.726;2023-06-24T04:24:47;5.70;;;5.20;;
8803;SDS011;4438;50.890;4.726;2023-06-24T04:27:13;5.93;;;5.40;;
8803;SDS011;4438;50.890;4.726;2023-06-24T04:29:39;6.23;;;5.20;;
8803;SDS011;4438;50.890;4.726;2023-06-24T04:32:05;6.47;;;5.83;;
8803;SDS011;4438;50.890;4.726;2023-06-24T04:34:31;6.20;;;5.60;;
8803;SDS011;4438;50.890;4.726;2023-06-24T04:36:57;6.03;;;5.43;;
8803;SDS011;4438;50.890;4.726;2023-06-24T04:39:23;6.77;;;5.47;;
8803;SDS011;4438;50.890;4.726;2023-06-24T04:41:49;6.50;;;5.63;;
8803;SDS011;4438;50.890;4.726;2023-06-24T04:44:16;6.20;;;5.70;;
8803;SDS011;4438;50.890;4.726;2023-06-24T04:46:42;7.33;;;5.17;;
8803;SDS011;4438;50.890;4.726;2023-06-24T04:49:08;5.97;;;5.40;;
8803;SDS011;4438;50.890;4.726;2023-06-24T04:51:34;6.17;;;5.33;;
8803;SDS011;4438;50.890;4.726;2023-06-24T04:54:01;6.60;;;5.90;;
8803;SDS011;4438;50.890;4.726;2023-06-24T04:56:28;6.97;;;5.73;;
8803;SDS011;4438;50.890;4.726;2023-06-24T04:58:54;5.97;;;5.33;;
8803;SDS011;4438;50.890;4.726;2023-06-24T05:01:21;8.63;;;5.77;;
8803;SDS011;4438;50.890;4.726;2023-06-24T05:03:48;7.93;;;5.70;;
8803;SDS011;4438;50.890;4.726;2023-06-24T05:06:14;6.23;;;5.53;;
8803;SDS011;4438;50.890;4.726;2023-06-24T05:08:40;6.40;;;5.70;;
8803;SDS011;4438;50.890;4.726;2023-06-24T05:11:06;7.13;;;5.90;;
8803;SDS011;4438;50.890;4.726;2023-06-24T05:13:32;8.40;;;5.63;;
8803;SDS011;4438;50.890;4.726;2023-06-24T05:15:58;6.17;;;5.57;;
8803;SDS011;4438;50.890;4.726;2023-06-24T05:18:24;5.93;;;5.33;;
8803;SDS011;4438;50.890;4.726;2023-06-24T05:20:50;8.67;;;5.50;;
8803;SDS011;4438;50.890;4.726;2023-06-24T05:23:17;5.80;;;5.30;;
8803;SDS011;4438;50.890;4.726;2023-06-24T05:25:43;7.13;;;5.10;;
8803;SDS011;4438;50.890;4.726;2023-06-24T05:28:09;5.33;;;4.83;;
8803;SDS011;4438;50.890;4.726;2023-06-24T05:30:35;5.30;;;4.60;;
8803;SDS011;4438;50.890;4.726;2023-06-24T05:33:02;5.70;;;5.20;;
8803;SDS011;4438;50.890;4.726;2023-06-24T05:35:28;4.87;;;4.47;;
8803;SDS011;4438;50.890;4.726;2023-06-24T05:37:54;6.67;;;4.40;;
8803;SDS011;4438;50.890;4.726;2023-06-24T05:40:20;5.47;;;4.67;;
8803;SDS011;4438;50.890;4.726;2023-06-24T05:42:46;4.90;;;4.50;;
8803;SDS011;4438;50.890;4.726;2023-06-24T05:45:12;4.73;;;4.33;;
8803;SDS011;4438;50.890;4.726;2023-06-24T05:47:38;5.20;;;4.70;;
8803;SDS011;4438;50.890;4.726;2023-06-24T05:50:04;4.97;;;4.47;;
8803;SDS011;4438;50.890;4.726;2023-06-24T05:52:30;4.90;;;4.40;;
8803;SDS011;4438;50.890;4.726;2023-06-24T05:54:57;5.03;;;4.53;;
8803;SDS011;4438;50.890;4.726;2023-06-24T05:57:23;4.80;;;4.40;;
8803;SDS011;4438;50.890;4.726;2023-06-24T05:59:49;7.33;;;4.40;;
8803;SDS011;4438;50.890;4.726;2023-06-24T06:02:15;4.87;;;4.10;;
8803;SDS011;4438;50.890;4.726;2023-06-24T06:04:41;4.67;;;4.27;;
8803;SDS011;4438;50.890;4.726;2023-06-24T06:07:07;4.90;;;4.40;;
8803;SDS011;4438;50.890;4.726;2023-06-24T06:09:33;5.50;;;4.63;;
8803;SDS011;4438;50.890;4.726;2023-06-24T06:11:59;5.40;;;4.03;;
8803;SDS011;4438;50.890;4.726;2023-06-24T06:14:25;5.90;;;4.60;;
8803;SDS011;4438;50.890;4.726;2023-06-24T06:16:51;4.23;;;3.83;;
8803;SDS011;4438;50.890;4.726;2023-06-24T06:19:18;4.97;;;4.47;;
8803;SDS011;4438;50.890;4.726;2023-06-24T06:21:44;5.27;;;4.43;;
8803;SDS011;4438;50.890;4.726;2023-06-24T06:24:10;5.13;;;4.50;;
8803;SDS011;4438;50.890;4.726;2023-06-24T06:26:40;4.60;;;4.20;;
8803;SDS011;4438;50.890;4.726;2023-06-24T06:29:06;6.53;;;4.23;;
8803;SDS011;4438;50.890;4.726;2023-06-24T06:31:32;4.73;;;4.33;;
8803;SDS011;4438;50.890;4.726;2023-06-24T06:33:58;4.70;;;4.20;;
8803;SDS011;4438;50.890;4.726;2023-06-24T06:36:24;4.67;;;4.00;;
8803;SDS011;4438;50.890;4.726;2023-06-24T06:38:50;6.17;;;4.27;;
8803;SDS011;4438;50.890;4.726;2023-06-24T06:41:16;5.13;;;4.07;;
8803;SDS011;4438;50.890;4.726;2023-06-24T06:43:49;4.67;;;4.07;;
8803;SDS011;4438;50.890;4.726;2023-06-24T06:46:15;4.83;;;4.10;;
8803;SDS011;4438;50.890;4.726;2023-06-24T06:48:41;5.27;;;4.27;;
8803;SDS011;4438;50.890;4.726;2023-06-24T06:51:07;6.20;;;4.60;;
8803;SDS011;4438;50.890;4.726;2023-06-24T06:53:33;4.63;;;4.23;;
8803;SDS011;4438;50.890;4.726;2023-06-24T06:55:59;5.30;;;4.90;;
8803;SDS011;4438;50.890;4.726;2023-06-24T06:58:25;5.07;;;4.67;;
8803;SDS011;4438;50.890;4.726;2023-06-24T07:00:52;5.83;;;4.60;;
8803;SDS011;4438;50.890;4.726;2023-06-24T07:03:18;4.83;;;4.33;;
8803;SDS011;4438;50.890;4.726;2023-06-24T07:05:44;4.60;;;4.20;;
8803;SDS011;4438;50.890;4.726;2023-06-24T07:08:11;5.37;;;4.40;;
8803;SDS011;4438;50.890;4.726;2023-06-24T07:10:37;4.77;;;4.37;;
8803;SDS011;4438;50.890;4.726;2023-06-24T07:13:03;5.73;;;4.50;;
8803;SDS011;4438;50.890;4.726;2023-06-24T07:15:29;4.73;;;4.30;;
8803;SDS011;4438;50.890;4.726;2023-06-24T07:17:55;4.90;;;4.40;;
8803;SDS011;4438;50.890;4.726;2023-06-24T07:20:22;4.87;;;4.20;;
8803;SDS011;4438;50.890;4.726;2023-06-24T07:22:48;4.80;;;4.40;;
8803;SDS011;4438;50.890;4.726;2023-06-24T07:25:15;4.73;;;4.33;;
8803;SDS011;4438;50.890;4.726;2023-06-24T07:27:41;5.10;;;4.60;;
8803;SDS011;4438;50.890;4.726;2023-06-24T07:30:07;4.70;;;4.20;;
8803;SDS011;4438;50.890;4.726;2023-06-24T07:32:33;5.30;;;4.80;;
8803;SDS011;4438;50.890;4.726;2023-06-24T07:34:59;4.20;;;3.90;;
8803;SDS011;4438;50.890;4.726;2023-06-24T07:37:26;4.57;;;4.17;;
8803;SDS011;4438;50.890;4.726;2023-06-24T07:39:52;4.47;;;4.07;;
8803;SDS011;4438;50.890;4.726;2023-06-24T07:42:18;4.93;;;3.80;;
8803;SDS011;4438;50.890;4.726;2023-06-24T07:44:47;4.43;;;4.03;;
8803;SDS011;4438;50.890;4.726;2023-06-24T07:47:14;4.23;;;3.83;;
8803;SDS011;4438;50.890;4.726;2023-06-24T07:49:40;5.57;;;4.10;;
8803;SDS011;4438;50.890;4.726;2023-06-24T07:52:06;5.07;;;4.27;;
8803;SDS011;4438;50.890;4.726;2023-06-24T07:54:33;4.10;;;3.47;;
8803;SDS011;4438;50.890;4.726;2023-06-24T07:56:59;4.27;;;3.87;;
8803;SDS011;4438;50.890;4.726;2023-06-24T07:59:26;3.40;;;3.10;;
8803;SDS011;4438;50.890;4.726;2023-06-24T08:01:52;4.30;;;3.50;;
8803;SDS011;4438;50.890;4.726;2023-06-24T08:04:18;3.97;;;3.43;;
8803;SDS011;4438;50.890;4.726;2023-06-24T08:06:44;3.70;;;3.10;;
8803;SDS011;4438;50.890;4.726;2023-06-24T08:09:10;3.47;;;3.10;;
8803;SDS011;4438;50.890;4.726;2023-06-24T08:11:36;3.80;;;3.40;;
8803;SDS011;4438;50.890;4.726;2023-06-24T08:14:02;4.00;;;3.57;;
8803;SDS011;4438;50.890;4.726;2023-06-24T08:16:29;3.83;;;3.50;;
8803;SDS011;4438;50.890;4.726;2023-06-24T08:18:55;3.60;;;3.30;;
8803;SDS011;4438;50.890;4.726;2023-06-24T08:21:21;3.93;;;3.53;;
8803;SDS011;4438;50.890;4.726;2023-06-24T08:23:47;3.40;;;3.10;;
8803;SDS011;4438;50.890;4.726;2023-06-24T08:26:15;3.67;;;3.10;;
8803;SDS011;4438;50.890;4.726;2023-06-24T08:28:41;4.40;;;3.00;;
8803;SDS011;4438;50.890;4.726;2023-06-24T08:31:07;4.23;;;3.23;;
8803;SDS011;4438;50.890;4.726;2023-06-24T08:33:33;4.50;;;3.00;;
8803;SDS011;4438;50.890;4.726;2023-06-24T08:35:59;3.23;;;2.90;;
8803;SDS011;4438;50.890;4.726;2023-06-24T08:38:25;3.40;;;3.10;;
8803;SDS011;4438;50.890;4.726;2023-06-24T08:40:52;4.10;;;2.80;;
8803;SDS011;4438;50.890;4.726;2023-06-24T08:43:18;2.90;;;2.60;;
8803;SDS011;4438;50.890;4.726;2023-06-24T08:45:44;3.07;;;2.77;;
8803;SDS011;4438;50.890;4.726;2023-06-24T08:48:10;3.33;;;3.03;;
8803;SDS011;4438;50.890;4.726;2023-06-24T08:50:40;4.27;;;3.30;;
8803;SDS011;4438;50.890;4.726;2023-06-24T08:53:09;3.50;;;3.00;;
8803;SDS011;4438;50.890;4.726;2023-06-24T08:55:36;2.80;;;2.50;;
8803;SDS011;4438;50.890;4.726;2023-06-24T08:58:05;2.87;;;2.57;;
8803;SDS011;4438;50.890;4.726;2023-06-24T09:00:31;2.77;;;2.53;;
8803;SDS011;4438;50.890;4.726;2023-06-24T09:02:57;3.10;;;2.80;;
8803;SDS011;4438;50.890;4.726;2023-06-24T09:05:24;3.00;;;2.70;;
8803;SDS011;4438;50.890;4.726;2023-06-24T09:07:50;3.20;;;2.90;;
8803;SDS011;4438;50.890;4.726;2023-06-24T09:10:35;3.77;;;2.80;;
8803;SDS011;4438;50.890;4.726;2023-06-24T09:13:02;3.30;;;2.93;;
8803;SDS011;4438;50.890;4.726;2023-06-24T09:15:35;3.00;;;2.60;;
8803;SDS011;4438;50.890;4.726;2023-06-24T09:18:02;2.87;;;2.57;;
8803;SDS011;4438;50.890;4.726;2023-06-24T09:20:29;2.93;;;2.73;;
8803;SDS011;4438;50.890;4.726;2023-06-24T09:23:02;3.30;;;2.73;;
8803;SDS011;4438;50.890;4.726;2023-06-24T09:25:30;2.90;;;2.60;;
8803;SDS011;4438;50.890;4.726;2023-06-24T09:28:00;2.80;;;2.60;;
8803;SDS011;4438;50.890;4.726;2023-06-24T09:30:26;2.90;;;2.70;;
8803;SDS011;4438;50.890;4.726;2023-06-24T09:32:53;3.23;;;2.53;;
8803;SDS011;4438;50.890;4.726;2023-06-24T09:35:20;3.47;;;3.17;;
8803;SDS011;4438;50.890;4.726;2023-06-24T09:37:53;2.87;;;2.50;;
8803;SDS011;4438;50.890;4.726;2023-06-24T09:40:19;2.90;;;2.60;;
8803;SDS011;4438;50.890;4.726;2023-06-24T09:42:56;2.80;;;2.60;;
8803;SDS011;4438;50.890;4.726;2023-06-24T09:45:26;2.80;;;2.60;;
8803;SDS011;4438;50.890;4.726;2023-06-24T09:47:53;3.10;;;2.80;;
8803;SDS011;4438;50.890;4.726;2023-06-24T09:50:19;2.80;;;2.60;;
8803;SDS011;4438;50.890;4.726;2023-06-24T09:52:46;3.13;;;2.63;;
8803;SDS011;4438;50.890;4.726;2023-06-24T09:55:13;2.77;;;2.57;;
8803;SDS011;4438;50.890;4.726;2023-06-24T09:57:40;3.17;;;2.50;;
8803;SDS011;4438;50.890;4.726;2023-06-24T10:00:07;2.47;;;2.23;;
8803;SDS011;4438;50.890;4.726;2023-06-24T10:02:35;2.83;;;2.40;;
8803;SDS011;4438;50.890;4.726;2023-06-24T10:05:01;2.93;;;2.63;;
8803;SDS011;4438;50.890;4.726;2023-06-24T10:07:27;2.53;;;2.33;;
8803;SDS011;4438;50.890;4.726;2023-06-24T10:09:54;2.50;;;2.30;;
8803;SDS011;4438;50.890;4.726;2023-06-24T10:12:20;2.60;;;2.40;;
8803;SDS011;4438;50.890;4.726;2023-06-24T10:14:46;2.77;;;2.57;;
8803;SDS011;4438;50.890;4.726;2023-06-24T10:17:12;2.63;;;2.30;;
8803;SDS011;4438;50.890;4.726;2023-06-24T10:19:39;2.63;;;2.43;;
8803;SDS011;4438;50.890;4.726;2023-06-24T10:22:08;2.60;;;2.40;;
8803;SDS011;4438;50.890;4.726;2023-06-24T10:24:38;2.70;;;2.50;;
8803;SDS011;4438;50.890;4.726;2023-06-24T10:27:14;2.60;;;2.40;;
8803;SDS011;4438;50.890;4.726;2023-06-24T10:29:41;6.00;;;2.80;;
8803;SDS011;4438;50.890;4.726;2023-06-24T10:32:10;3.30;;;2.40;;
8803;SDS011;4438;50.890;4.726;2023-06-24T10:34:40;2.57;;;2.20;;
8803;SDS011;4438;50.890;4.726;2023-06-24T10:44:50;2.63;;;2.43;;
8803;SDS011;4438;50.890;4.726;2023-06-24T10:47:21;2.40;;;2.20;;
8803;SDS011;4438;50.890;4.726;2023-06-24T10:49:47;2.50;;;2.30;;
8803;SDS011;4438;50.890;4.726;2023-06-24T10:52:13;2.70;;;2.50;;
8803;SDS011;4438;50.890;4.726;2023-06-24T10:54:40;2.87;;;2.63;;
8803;SDS011;4438;50.890;4.726;2023-06-24T10:57:07;4.40;;;2.57;;
8803;SDS011;4438;50.890;4.726;2023-06-24T11:02:07;2.97;;;2.50;;
8803;SDS011;4438;50.890;4.726;2023-06-24T11:04:41;3.13;;;2.47;;
8803;SDS011;4438;50.890;4.726;2023-06-24T11:07:07;3.13;;;2.70;;
8803;SDS011;4438;50.890;4.726;2023-06-24T11:09:33;2.73;;;2.53;;
8803;SDS011;4438;50.890;4.726;2023-06-24T11:12:01;2.70;;;2.50;;
8803;SDS011;4438;50.890;4.726;2023-06-24T11:14:28;2.70;;;2.50;;
8803;SDS011;4438;50.890;4.726;2023-06-24T11:16:54;2.80;;;2.60;;
8803;SDS011;4438;50.890;4.726;2023-06-24T11:19:20;2.40;;;2.20;;
8803;SDS011;4438;50.890;4.726;2023-06-24T11:21:46;2.67;;;2.47;;
8803;SDS011;4438;50.890;4.726;2023-06-24T11:24:12;2.83;;;2.63;;
8803;SDS011;4438;50.890;4.726;2023-06-24T11:26:39;2.50;;;2.30;;
8803;SDS011;4438;50.890;4.726;2023-06-24T11:29:09;2.53;;;2.33;;
8803;SDS011;4438;50.890;4.726;2023-06-24T11:31:36;2.70;;;2.50;;
8803;SDS011;4438;50.890;4.726;2023-06-24T11:34:03;2.40;;;2.20;;
8803;SDS011;4438;50.890;4.726;2023-06-24T11:36:29;2.13;;;2.03;;
8803;SDS011;4438;50.890;4.726;2023-06-24T11:38:55;2.47;;;2.22;;
8803;SDS011;4438;50.890;4.726;2023-06-24T11:41:21;2.40;;;2.20;;
8803;SDS011;4438;50.890;4.726;2023-06-24T11:43:48;2.22;;;2.13;;
8803;SDS011;4438;50.890;4.726;2023-06-24T11:46:27;2.22;;;2.08;;
8803;SDS011;4438;50.890;4.726;2023-06-24T11:49:06;2.22;;;2.03;;
8803;SDS011;4438;50.890;4.726;2023-06-24T11:51:33;2.60;;;2.40;;
8803;SDS011;4438;50.890;4.726;2023-06-24T11:53:59;2.63;;;2.00;;
8803;SDS011;4438;50.890;4.726;2023-06-24T11:56:36;2.25;;;2.15;;
8803;SDS011;4438;50.890;4.726;2023-06-24T11:59:05;2.72;;;2.38;;
8803;SDS011;4438;50.890;4.726;2023-06-24T12:01:32;2.45;;;2.25;;
8803;SDS011;4438;50.890;4.726;2023-06-24T12:04:01;2.50;;;2.30;;
8803;SDS011;4438;50.890;4.726;2023-06-24T12:06:27;2.63;;;2.25;;
8803;SDS011;4438;50.890;4.726;2023-06-24T12:08:53;2.38;;;2.13;;
8803;SDS011;4438;50.890;4.726;2023-06-24T12:11:19;3.72;;;2.38;;
8803;SDS011;4438;50.890;4.726;2023-06-24T12:13:47;2.30;;;2.10;;
8803;SDS011;4438;50.890;4.726;2023-06-24T12:16:13;2.40;;;2.20;;
8803;SDS011;4438;50.890;4.726;2023-06-24T12:18:39;2.90;;;2.60;;
8803;SDS011;4438;50.890;4.726;2023-06-24T12:21:05;2.40;;;2.20;;
8803;SDS011;4438;50.890;4.726;2023-06-24T12:23:31;3.10;;;2.20;;
8803;SDS011;4438;50.890;4.726;2023-06-24T12:25:57;2.75;;;2.30;;
8803;SDS011;4438;50.890;4.726;2023-06-24T12:28:23;2.60;;;2.40;;
8803;SDS011;4438;50.890;4.726;2023-06-24T12:30:49;2.70;;;2.50;;
8803;SDS011;4438;50.890;4.726;2023-06-24T12:33:16;2.70;;;2.50;;
8803;SDS011;4438;50.890;4.726;2023-06-24T12:35:44;2.65;;;2.45;;
8803;SDS011;4438;50.890;4.726;2023-06-24T12:38:11;2.63;;;2.42;;
8803;SDS011;4438;50.890;4.726;2023-06-24T12:40:37;2.70;;;2.50;;
8803;SDS011;4438;50.890;4.726;2023-06-24T12:43:04;2.80;;;2.60;;
8803;SDS011;4438;50.890;4.726;2023-06-24T12:45:30;3.15;;;2.40;;
8803;SDS011;4438;50.890;4.726;2023-06-24T12:47:56;3.20;;;2.60;;
8803;SDS011;4438;50.890;4.726;2023-06-24T12:50:24;2.40;;;2.20;;
8803;SDS011;4438;50.890;4.726;2023-06-24T12:52:50;2.95;;;2.70;;
8803;SDS011;4438;50.890;4.726;2023-06-24T12:55:16;2.70;;;2.50;;
8803;SDS011;4438;50.890;4.726;2023-06-24T12:57:42;2.90;;;2.70;;
8803;SDS011;4438;50.890;4.726;2023-06-24T13:00:09;3.33;;;2.50;;
8803;SDS011;4438;50.890;4.726;2023-06-24T13:02:37;2.92;;;2.72;;
8803;SDS011;4438;50.890;4.726;2023-06-24T13:05:04;2.85;;;2.65;;
8803;SDS011;4438;50.890;4.726;2023-06-24T13:07:30;2.85;;;2.60;;
8803;SDS011;4438;50.890;4.726;2023-06-24T13:09:56;3.05;;;2.78;;
8803;SDS011;4438;50.890;4.726;2023-06-24T13:12:24;5.72;;;2.92;;
8803;SDS011;4438;50.890;4.726;2023-06-24T13:14:50;2.70;;;2.50;;
8803;SDS011;4438;50.890;4.726;2023-06-24T13:17:16;3.45;;;2.70;;
8803;SDS011;4438;50.890;4.726;2023-06-24T13:19:42;3.20;;;2.90;;
8803;SDS011;4438;50.890;4.726;2023-06-24T13:22:08;2.92;;;2.65;;
8803;SDS011;4438;50.890;4.726;2023-06-24T13:24:34;3.13;;;2.90;;
8803;SDS011;4438;50.890;4.726;2023-06-24T13:27:00;2.85;;;2.65;;
8803;SDS011;4438;50.890;4.726;2023-06-24T13:29:26;3.92;;;2.88;;
8803;SDS011;4438;50.890;4.726;2023-06-24T13:31:52;3.17;;;2.70;;
8803;SDS011;4438;50.890;4.726;2023-06-24T13:34:19;2.70;;;2.50;;
8803;SDS011;4438;50.890;4.726;2023-06-24T13:36:45;2.80;;;2.50;;
8803;SDS011;4438;50.890;4.726;2023-06-24T13:39:12;2.80;;;2.60;;
8803;SDS011;4438;50.890;4.726;2023-06-24T13:41:38;2.95;;;2.65;;
8803;SDS011;4438;50.890;4.726;2023-06-24T13:44:04;2.78;;;2.58;;
8803;SDS011;4438;50.890;4.726;2023-06-24T13:46:31;3.10;;;2.80;;
8803;SDS011;4438;50.890;4.726;2023-06-24T13:48:58;3.20;;;2.90;;
8803;SDS011;4438;50.890;4.726;2023-06-24T13:51:24;2.72;;;2.53;;
8803;SDS011;4438;50.890;4.726;2023-06-24T13:53:51;3.22;;;2.92;;
8803;SDS011;4438;50.890;4.726;2023-06-24T13:56:18;2.92;;;2.72;;
8803;SDS011;4438;50.890;4.726;2023-06-24T13:58:44;2.92;;;2.50;;
8803;SDS011;4438;50.890;4.726;2023-06-24T14:01:10;2.88;;;2.67;;
8803;SDS011;4438;50.890;4.726;2023-06-24T14:03:37;2.90;;;2.70;;
8803;SDS011;4438;50.890;4.726;2023-06-24T14:06:04;3.28;;;2.70;;
8803;SDS011;4438;50.890;4.726;2023-06-24T14:08:30;4.50;;;3.08;;
8803;SDS011;4438;50.890;4.726;2023-06-24T14:10:57;3.15;;;2.72;;
8803;SDS011;4438;50.890;4.726;2023-06-24T14:13:24;2.67;;;2.47;;
8803;SDS011;4438;50.890;4.726;2023-06-24T14:15:50;3.00;;;2.70;;
8803;SDS011;4438;50.890;4.726;2023-06-24T14:18:16;3.28;;;2.97;;
8803;SDS011;4438;50.890;4.726;2023-06-24T14:20:42;3.13;;;2.60;;
8803;SDS011;4438;50.890;4.726;2023-06-24T14:23:08;3.90;;;3.05;;
8803;SDS011;4438;50.890;4.726;2023-06-24T14:25:34;6.50;;;3.03;;
8803;SDS011;4438;50.890;4.726;2023-06-24T14:28:02;2.95;;;2.72;;
8803;SDS011;4438;50.890;4.726;2023-06-24T14:30:29;3.15;;;2.90;;
8803;SDS011;4438;50.890;4.726;2023-06-24T14:32:55;3.60;;;3.30;;
8803;SDS011;4438;50.890;4.726;2023-06-24T14:35:21;4.22;;;3.40;;
8803;SDS011;4438;50.890;4.726;2023-06-24T14:37:47;3.17;;;2.80;;
8803;SDS011;4438;50.890;4.726;2023-06-24T14:40:13;2.92;;;2.72;;
8803;SDS011;4438;50.890;4.726;2023-06-24T14:42:39;3.13;;;2.92;;
8803;SDS011;4438;50.890;4.726;2023-06-24T14:45:06;2.92;;;2.67;;
8803;SDS011;4438;50.890;4.726;2023-06-24T14:47:32;3.15;;;2.95;;
8803;SDS011;4438;50.890;4.726;2023-06-24T14:49:58;3.10;;;2.80;;
8803;SDS011;4438;50.890;4.726;2023-06-24T14:52:24;2.83;;;2.63;;
8803;SDS011;4438;50.890;4.726;2023-06-24T14:54:50;3.33;;;3.00;;
8803;SDS011;4438;50.890;4.726;2023-06-24T14:57:16;3.42;;;3.17;;
8803;SDS011;4438;50.890;4.726;2023-06-24T14:59:43;3.13;;;2.80;;
8803;SDS011;4438;50.890;4.726;2023-06-24T15:02:09;3.05;;;2.80;;
8803;SDS011;4438;50.890;4.726;2023-06-24T15:04:35;3.15;;;2.92;;
8803;SDS011;4438;50.890;4.726;2023-06-24T15:07:02;3.17;;;2.85;;
8803;SDS011;4438;50.890;4.726;2023-06-24T15:09:28;3.67;;;3.10;;
8803;SDS011;4438;50.890;4.726;2023-06-24T15:11:54;3.25;;;2.88;;
8803;SDS011;4438;50.890;4.726;2023-06-24T15:14:20;3.30;;;3.00;;
8803;SDS011;4438;50.890;4.726;2023-06-24T15:16:46;3.38;;;2.72;;
8803;SDS011;4438;50.890;4.726;2023-06-24T15:19:12;3.10;;;2.80;;
8803;SDS011;4438;50.890;4.726;2023-06-24T15:21:38;3.20;;;2.90;;
8803;SDS011;4438;50.890;4.726;2023-06-24T15:24:04;3.10;;;2.90;;
8803;SDS011;4438;50.890;4.726;2023-06-24T15:26:31;3.25;;;3.05;;
8803;SDS011;4438;50.890;4.726;2023-06-24T15:28:57;3.63;;;3.00;;
8803;SDS011;4438;50.890;4.726;2023-06-24T15:31:23;3.22;;;3.03;;
8803;SDS011;4438;50.890;4.726;2023-06-24T15:33:49;3.85;;;3.15;;
8803;SDS011;4438;50.890;4.726;2023-06-24T15:36:15;3.00;;;2.80;;
8803;SDS011;4438;50.890;4.726;2023-06-24T15:38:41;3.42;;;3.17;;
8803;SDS011;4438;50.890;4.726;2023-06-24T15:41:07;3.33;;;3.03;;